sensor_id;sensor_type;location;lat;lon;timestamp;P1;durP1;ratioP1;P2;durP2;ratioP2
40588;SDS011;26297;49.450;6.640;2023-04-12T00:03:35;2.33;;;0.73;;
40588;SDS011;26297;49.450;6.640;2023-04-12T00:06:44;2.53;;;0.75;;
40588;SDS011;26297;49.450;6.640;2023-04-12T00:12:59;0.75;;;0.65;;
40588;SDS011;26297;49.450;6.640;2023-04-12T00:16:09;0.95;;;0.68;;
40588;SDS011;26297;49.450;6.640;2023-04-12T00:19:17;0.80;;;0.60;;
40588;SDS011;26297;49.450;6.640;2023-04-12T00:22:28;2.63;;;0.77;;
40588;SDS011;26297;49.450;6.640;2023-04-12T00:25:35;2.60;;;0.80;;
40588;SDS011;26297;49.450;6.640;2023-04-12T00:28:43;1.23;;;0.47;;
40588;SDS011;26297;49.450;6.640;2023-04-12T00:31:49;2.08;;;0.68;;
40588;SDS011;26297;49.450;6.640;2023-04-12T00:38:07;2.80;;;0.70;;
40588;SDS011;26297;49.450;6.640;2023-04-12T00:41:21;1.05;;;0.68;;
40588;SDS011;26297;49.450;6.640;2023-04-12T00:44:27;6.47;;;1.10;;
40588;SDS011;26297;49.450;6.640;2023-04-12T00:47:39;4.20;;;1.15;;
40588;SDS011;26297;49.450;6.640;2023-04-12T00:50:46;0.68;;;0.65;;
40588;SDS011;26297;49.450;6.640;2023-04-12T00:53:57;1.85;;;0.60;;
40588;SDS011;26297;49.450;6.640;2023-04-12T00:57:03;1.67;;;0.50;;
40588;SDS011;26297;49.450;6.640;2023-04-12T01:00:22;1.50;;;0.50;;
40588;SDS011;26297;49.450;6.640;2023-04-12T01:03:27;2.55;;;0.50;;
40588;SDS011;26297;49.450;6.640;2023-04-12T01:06:40;1.05;;;0.63;;
40588;SDS011;26297;49.450;6.640;2023-04-12T01:17:27;2.00;;;0.80;;
40588;SDS011;26297;49.450;6.640;2023-04-12T01:20:39;2.58;;;0.50;;
40588;SDS011;26297;49.450;6.640;2023-04-12T01:24:00;1.63;;;0.50;;
40588;SDS011;26297;49.450;6.640;2023-04-12T01:27:26;2.08;;;0.80;;
40588;SDS011;26297;49.450;6.640;2023-04-12T01:30:58;2.58;;;0.60;;
40588;SDS011;26297;49.450;6.640;2023-04-12T01:34:09;1.52;;;0.57;;
40588;SDS011;26297;49.450;6.640;2023-04-12T01:37:16;1.85;;;0.63;;
40588;SDS011;26297;49.450;6.640;2023-04-12T01:40:44;0.90;;;0.43;;
40588;SDS011;26297;49.450;6.640;2023-04-12T01:44:02;0.93;;;0.77;;
40588;SDS011;26297;49.450;6.640;2023-04-12T01:47:11;1.65;;;0.70;;
40588;SDS011;26297;49.450;6.640;2023-04-12T01:50:22;0.98;;;0.40;;
40588;SDS011;26297;49.450;6.640;2023-04-12T01:53:48;1.98;;;0.82;;
40588;SDS011;26297;49.450;6.640;2023-04-12T01:57:06;0.77;;;0.43;;
40588;SDS011;26297;49.450;6.640;2023-04-12T02:00:12;1.02;;;0.70;;
40588;SDS011;26297;49.450;6.640;2023-04-12T02:03:20;0.95;;;0.57;;
40588;SDS011;26297;49.450;6.640;2023-04-12T02:06:26;1.25;;;0.57;;
40588;SDS011;26297;49.450;6.640;2023-04-12T02:09:37;3.53;;;0.93;;
40588;SDS011;26297;49.450;6.640;2023-04-12T02:12:51;1.50;;;0.88;;
40588;SDS011;26297;49.450;6.640;2023-04-12T02:15:58;1.25;;;0.73;;
40588;SDS011;26297;49.450;6.640;2023-04-12T02:19:05;0.77;;;0.77;;
40588;SDS011;26297;49.450;6.640;2023-04-12T02:22:18;1.40;;;0.65;;
40588;SDS011;26297;49.450;6.640;2023-04-12T02:25:24;2.10;;;0.85;;
40588;SDS011;26297;49.450;6.640;2023-04-12T02:28:36;3.72;;;1.35;;
40588;SDS011;26297;49.450;6.640;2023-04-12T02:31:45;1.20;;;1.05;;
40588;SDS011;26297;49.450;6.640;2023-04-12T02:34:53;2.00;;;0.80;;
40588;SDS011;26297;49.450;6.640;2023-04-12T02:38:09;1.08;;;0.60;;
40588;SDS011;26297;49.450;6.640;2023-04-12T02:41:18;1.02;;;0.70;;
40588;SDS011;26297;49.450;6.640;2023-04-12T02:44:42;1.00;;;0.80;;
40588;SDS011;26297;49.450;6.640;2023-04-12T02:47:50;1.75;;;0.70;;
40588;SDS011;26297;49.450;6.640;2023-04-12T02:53:52;1.38;;;1.05;;
40588;SDS011;26297;49.450;6.640;2023-04-12T02:57:02;1.42;;;0.50;;
40588;SDS011;26297;49.450;6.640;2023-04-12T03:00:09;1.40;;;0.85;;
40588;SDS011;26297;49.450;6.640;2023-04-12T03:03:21;0.95;;;0.85;;
40588;SDS011;26297;49.450;6.640;2023-04-12T03:06:34;2.42;;;0.93;;
40588;SDS011;26297;49.450;6.640;2023-04-12T03:09:46;1.88;;;0.68;;
40588;SDS011;26297;49.450;6.640;2023-04-12T03:12:53;0.55;;;0.43;;
40588;SDS011;26297;49.450;6.640;2023-04-12T03:16:18;1.05;;;0.60;;
40588;SDS011;26297;49.450;6.640;2023-04-12T03:19:34;1.67;;;0.90;;
40588;SDS011;26297;49.450;6.640;2023-04-12T03:22:39;2.55;;;0.90;;
40588;SDS011;26297;49.450;6.640;2023-04-12T03:25:47;1.08;;;0.70;;
40588;SDS011;26297;49.450;6.640;2023-04-12T03:29:02;2.88;;;1.02;;
40588;SDS011;26297;49.450;6.640;2023-04-12T03:32:15;1.30;;;0.85;;
40588;SDS011;26297;49.450;6.640;2023-04-12T03:35:25;0.68;;;0.68;;
40588;SDS011;26297;49.450;6.640;2023-04-12T03:38:39;1.60;;;0.77;;
40588;SDS011;26297;49.450;6.640;2023-04-12T03:41:56;0.98;;;0.77;;
40588;SDS011;26297;49.450;6.640;2023-04-12T03:45:06;1.05;;;0.80;;
40588;SDS011;26297;49.450;6.640;2023-04-12T03:48:10;1.38;;;0.77;;
40588;SDS011;26297;49.450;6.640;2023-04-12T03:51:17;1.58;;;0.80;;
40588;SDS011;26297;49.450;6.640;2023-04-12T03:54:29;0.88;;;0.88;;
40588;SDS011;26297;49.450;6.640;2023-04-12T03:57:36;0.70;;;0.57;;
40588;SDS011;26297;49.450;6.640;2023-04-12T04:00:47;0.80;;;0.80;;
40588;SDS011;26297;49.450;6.640;2023-04-12T04:04:02;1.17;;;0.80;;
40588;SDS011;26297;49.450;6.640;2023-04-12T04:10:44;0.90;;;0.65;;
40588;SDS011;26297;49.450;6.640;2023-04-12T04:13:55;3.17;;;0.75;;
40588;SDS011;26297;49.450;6.640;2023-04-12T04:17:04;3.33;;;1.13;;
40588;SDS011;26297;49.450;6.640;2023-04-12T04:20:12;1.77;;;0.82;;
40588;SDS011;26297;49.450;6.640;2023-04-12T04:23:21;1.98;;;0.50;;
40588;SDS011;26297;49.450;6.640;2023-04-12T04:26:50;1.25;;;0.77;;
40588;SDS011;26297;49.450;6.640;2023-04-12T04:30:19;1.73;;;0.63;;
40588;SDS011;26297;49.450;6.640;2023-04-12T04:33:28;1.55;;;0.85;;
40588;SDS011;26297;49.450;6.640;2023-04-12T04:39:40;1.42;;;0.68;;
40588;SDS011;26297;49.450;6.640;2023-04-12T04:47:29;0.80;;;0.77;;
40588;SDS011;26297;49.450;6.640;2023-04-12T04:51:22;0.80;;;0.75;;
40588;SDS011;26297;49.450;6.640;2023-04-12T04:58:55;1.55;;;0.70;;
40588;SDS011;26297;49.450;6.640;2023-04-12T05:07:13;1.42;;;1.00;;
40588;SDS011;26297;49.450;6.640;2023-04-12T05:11:01;1.13;;;0.70;;
40588;SDS011;26297;49.450;6.640;2023-04-12T05:14:45;0.80;;;0.80;;
40588;SDS011;26297;49.450;6.640;2023-04-12T05:18:14;1.23;;;0.90;;
40588;SDS011;26297;49.450;6.640;2023-04-12T05:21:44;1.85;;;0.70;;
40588;SDS011;26297;49.450;6.640;2023-04-12T05:25:30;3.10;;;0.80;;
40588;SDS011;26297;49.450;6.640;2023-04-12T05:29:31;2.20;;;0.80;;
40588;SDS011;26297;49.450;6.640;2023-04-12T05:33:09;1.75;;;0.80;;
40588;SDS011;26297;49.450;6.640;2023-04-12T05:37:14;0.88;;;0.52;;
40588;SDS011;26297;49.450;6.640;2023-04-12T05:45:02;3.58;;;1.35;;
40588;SDS011;26297;49.450;6.640;2023-04-12T05:48:40;1.95;;;0.75;;
40588;SDS011;26297;49.450;6.640;2023-04-12T05:52:01;1.52;;;0.90;;
40588;SDS011;26297;49.450;6.640;2023-04-12T05:59:32;3.45;;;0.85;;
40588;SDS011;26297;49.450;6.640;2023-04-12T06:03:01;1.88;;;0.90;;
40588;SDS011;26297;49.450;6.640;2023-04-12T06:14:59;3.28;;;1.10;;
40588;SDS011;26297;49.450;6.640;2023-04-12T06:19:14;2.08;;;0.95;;
40588;SDS011;26297;49.450;6.640;2023-04-12T06:27:13;3.83;;;1.17;;
40588;SDS011;26297;49.450;6.640;2023-04-12T06:31:27;0.60;;;0.60;;
40588;SDS011;26297;49.450;6.640;2023-04-12T06:35:29;0.80;;;0.80;;
40588;SDS011;26297;49.450;6.640;2023-04-12T06:48:32;3.03;;;1.00;;
40588;SDS011;26297;49.450;6.640;2023-04-12T06:51:47;3.88;;;1.38;;
40588;SDS011;26297;49.450;6.640;2023-04-12T06:54:55;1.75;;;1.30;;
40588;SDS011;26297;49.450;6.640;2023-04-12T06:58:12;4.80;;;1.63;;
40588;SDS011;26297;49.450;6.640;2023-04-12T07:01:21;4.45;;;1.60;;
40588;SDS011;26297;49.450;6.640;2023-04-12T07:04:31;2.85;;;1.50;;
40588;SDS011;26297;49.450;6.640;2023-04-12T07:07:38;4.80;;;1.80;;
40588;SDS011;26297;49.450;6.640;2023-04-12T07:10:58;3.85;;;1.30;;
40588;SDS011;26297;49.450;6.640;2023-04-12T07:14:13;3.95;;;1.08;;
40588;SDS011;26297;49.450;6.640;2023-04-12T07:17:38;4.80;;;1.45;;
40588;SDS011;26297;49.450;6.640;2023-04-12T07:20:47;2.97;;;0.95;;
40588;SDS011;26297;49.450;6.640;2023-04-12T07:23:56;3.80;;;1.50;;
40588;SDS011;26297;49.450;6.640;2023-04-12T07:27:14;4.10;;;1.40;;
40588;SDS011;26297;49.450;6.640;2023-04-12T07:30:25;2.35;;;1.02;;
40588;SDS011;26297;49.450;6.640;2023-04-12T07:33:36;2.70;;;1.15;;
40588;SDS011;26297;49.450;6.640;2023-04-12T07:36:50;1.92;;;1.20;;
40588;SDS011;26297;49.450;6.640;2023-04-12T07:39:55;3.88;;;1.00;;
40588;SDS011;26297;49.450;6.640;2023-04-12T07:43:00;1.33;;;0.90;;
40588;SDS011;26297;49.450;6.640;2023-04-12T07:46:16;2.75;;;1.30;;
40588;SDS011;26297;49.450;6.640;2023-04-12T07:49:30;2.22;;;1.00;;
40588;SDS011;26297;49.450;6.640;2023-04-12T07:52:35;3.00;;;1.35;;
40588;SDS011;26297;49.450;6.640;2023-04-12T07:56:00;0.75;;;0.70;;
40588;SDS011;26297;49.450;6.640;2023-04-12T07:59:30;1.70;;;0.90;;
40588;SDS011;26297;49.450;6.640;2023-04-12T08:02:41;1.20;;;1.10;;
40588;SDS011;26297;49.450;6.640;2023-04-12T08:06:06;2.30;;;1.05;;
40588;SDS011;26297;49.450;6.640;2023-04-12T08:09:25;2.75;;;0.98;;
40588;SDS011;26297;49.450;6.640;2023-04-12T08:12:42;2.70;;;1.23;;
40588;SDS011;26297;49.450;6.640;2023-04-12T08:15:47;2.00;;;0.80;;
40588;SDS011;26297;49.450;6.640;2023-04-12T08:19:27;0.80;;;0.80;;
40588;SDS011;26297;49.450;6.640;2023-04-12T08:22:35;2.38;;;0.80;;
40588;SDS011;26297;49.450;6.640;2023-04-12T08:25:48;1.38;;;0.90;;
40588;SDS011;26297;49.450;6.640;2023-04-12T08:29:02;3.28;;;1.40;;
40588;SDS011;26297;49.450;6.640;2023-04-12T08:32:18;3.13;;;0.88;;
40588;SDS011;26297;49.450;6.640;2023-04-12T08:36:24;5.03;;;0.77;;
40588;SDS011;26297;49.450;6.640;2023-04-12T08:39:32;1.60;;;0.73;;
40588;SDS011;26297;49.450;6.640;2023-04-12T08:42:39;1.33;;;0.57;;
40588;SDS011;26297;49.450;6.640;2023-04-12T08:45:48;0.90;;;0.50;;
40588;SDS011;26297;49.450;6.640;2023-04-12T08:49:40;1.60;;;1.00;;
40588;SDS011;26297;49.450;6.640;2023-04-12T08:56:30;1.75;;;0.88;;
40588;SDS011;26297;49.450;6.640;2023-04-12T08:59:39;0.85;;;0.70;;
40588;SDS011;26297;49.450;6.640;2023-04-12T09:02:49;1.52;;;1.00;;
40588;SDS011;26297;49.450;6.640;2023-04-12T09:06:06;0.68;;;0.60;;
40588;SDS011;26297;49.450;6.640;2023-04-12T09:09:43;0.85;;;0.73;;
40588;SDS011;26297;49.450;6.640;2023-04-12T09:12:49;1.48;;;0.82;;
40588;SDS011;26297;49.450;6.640;2023-04-12T09:15:59;2.42;;;0.82;;
40588;SDS011;26297;49.450;6.640;2023-04-12T09:19:08;1.33;;;0.60;;
40588;SDS011;26297;49.450;6.640;2023-04-12T09:22:14;1.63;;;0.70;;
40588;SDS011;26297;49.450;6.640;2023-04-12T09:25:37;0.63;;;0.47;;
40588;SDS011;26297;49.450;6.640;2023-04-12T09:28:47;0.65;;;0.50;;
40588;SDS011;26297;49.450;6.640;2023-04-12T09:35:10;3.05;;;0.68;;
40588;SDS011;26297;49.450;6.640;2023-04-12T09:38:21;0.50;;;0.50;;
40588;SDS011;26297;49.450;6.640;2023-04-12T09:41:42;1.35;;;0.30;;
40588;SDS011;26297;49.450;6.640;2023-04-12T09:44:49;1.70;;;0.60;;
40588;SDS011;26297;49.450;6.640;2023-04-12T09:48:30;1.45;;;0.50;;
40588;SDS011;26297;49.450;6.640;2023-04-12T09:52:14;0.88;;;0.60;;
40588;SDS011;26297;49.450;6.640;2023-04-12T09:55:22;3.45;;;0.80;;
40588;SDS011;26297;49.450;6.640;2023-04-12T09:58:37;2.33;;;0.45;;
40588;SDS011;26297;49.450;6.640;2023-04-12T10:01:47;1.75;;;0.40;;
40588;SDS011;26297;49.450;6.640;2023-04-12T10:04:56;0.77;;;0.30;;
40588;SDS011;26297;49.450;6.640;2023-04-12T10:08:07;0.60;;;0.40;;
40588;SDS011;26297;49.450;6.640;2023-04-12T10:11:18;2.28;;;0.35;;
40588;SDS011;26297;49.450;6.640;2023-04-12T10:14:42;1.45;;;0.50;;
40588;SDS011;26297;49.450;6.640;2023-04-12T10:17:59;1.50;;;0.40;;
40588;SDS011;26297;49.450;6.640;2023-04-12T10:21:15;0.32;;;0.25;;
40588;SDS011;26297;49.450;6.640;2023-04-12T10:28:32;2.08;;;0.52;;
40588;SDS011;26297;49.450;6.640;2023-04-12T10:31:38;0.43;;;0.25;;
40588;SDS011;26297;49.450;6.640;2023-04-12T10:39:13;0.30;;;0.20;;
40588;SDS011;26297;49.450;6.640;2023-04-12T10:42:26;0.38;;;0.30;;
40588;SDS011;26297;49.450;6.640;2023-04-12T10:49:05;0.88;;;0.35;;
40588;SDS011;26297;49.450;6.640;2023-04-12T10:52:15;0.77;;;0.40;;
40588;SDS011;26297;49.450;6.640;2023-04-12T10:55:33;0.20;;;0.20;;
40588;SDS011;26297;49.450;6.640;2023-04-12T11:02:10;0.50;;;0.20;;
40588;SDS011;26297;49.450;6.640;2023-04-12T11:05:20;0.73;;;0.32;;
40588;SDS011;26297;49.450;6.640;2023-04-12T11:08:37;0.20;;;0.20;;
40588;SDS011;26297;49.450;6.640;2023-04-12T11:11:43;0.20;;;0.10;;
40588;SDS011;26297;49.450;6.640;2023-04-12T11:14:50;0.25;;;0.25;;
40588;SDS011;26297;49.450;6.640;2023-04-12T11:17:56;1.30;;;0.28;;
40588;SDS011;26297;49.450;6.640;2023-04-12T11:21:23;0.32;;;0.20;;
40588;SDS011;26297;49.450;6.640;2023-04-12T11:24:37;0.30;;;0.28;;
40588;SDS011;26297;49.450;6.640;2023-04-12T11:27:50;0.25;;;0.10;;
40588;SDS011;26297;49.450;6.640;2023-04-12T11:31:04;0.17;;;0.10;;
40588;SDS011;26297;49.450;6.640;2023-04-12T11:34:15;0.20;;;0.10;;
40588;SDS011;26297;49.450;6.640;2023-04-12T11:37:21;1.40;;;0.25;;
40588;SDS011;26297;49.450;6.640;2023-04-12T11:40:34;0.10;;;0.10;;
40588;SDS011;26297;49.450;6.640;2023-04-12T11:43:53;0.32;;;0.20;;
40588;SDS011;26297;49.450;6.640;2023-04-12T11:46:57;0.43;;;0.10;;
40588;SDS011;26297;49.450;6.640;2023-04-12T11:50:03;0.20;;;0.20;;
40588;SDS011;26297;49.450;6.640;2023-04-12T11:53:13;0.10;;;0.10;;
40588;SDS011;26297;49.450;6.640;2023-04-12T11:56:21;0.20;;;0.20;;
40588;SDS011;26297;49.450;6.640;2023-04-12T11:59:30;0.30;;;0.20;;
40588;SDS011;26297;49.450;6.640;2023-04-12T12:02:44;0.47;;;0.30;;
40588;SDS011;26297;49.450;6.640;2023-04-12T12:05:51;0.20;;;0.20;;
40588;SDS011;26297;49.450;6.640;2023-04-12T12:09:11;0.30;;;0.20;;
40588;SDS011;26297;49.450;6.640;2023-04-12T12:12:25;0.77;;;0.30;;
40588;SDS011;26297;49.450;6.640;2023-04-12T12:15:30;0.05;;;0.05;;
40588;SDS011;26297;49.450;6.640;2023-04-12T12:18:40;0.10;;;0.10;;
40588;SDS011;26297;49.450;6.640;2023-04-12T12:21:53;0.10;;;0.10;;
40588;SDS011;26297;49.450;6.640;2023-04-12T12:25:16;0.08;;;0.08;;
40588;SDS011;26297;49.450;6.640;2023-04-12T12:28:22;0.10;;;0.10;;
40588;SDS011;26297;49.450;6.640;2023-04-12T12:31:35;0.10;;;0.10;;
40588;SDS011;26297;49.450;6.640;2023-04-12T12:34:48;0.20;;;0.20;;
40588;SDS011;26297;49.450;6.640;2023-04-12T12:37:55;0.30;;;0.30;;
40588;SDS011;26297;49.450;6.640;2023-04-12T12:41:19;1.40;;;0.20;;
40588;SDS011;26297;49.450;6.640;2023-04-12T12:44:29;0.20;;;0.20;;
40588;SDS011;26297;49.450;6.640;2023-04-12T12:47:47;0.20;;;0.20;;
40588;SDS011;26297;49.450;6.640;2023-04-12T12:50:58;0.13;;;0.10;;
40588;SDS011;26297;49.450;6.640;2023-04-12T12:54:03;0.55;;;0.10;;
40588;SDS011;26297;49.450;6.640;2023-04-12T12:57:10;0.10;;;0.10;;
40588;SDS011;26297;49.450;6.640;2023-04-12T13:00:21;0.35;;;0.20;;
40588;SDS011;26297;49.450;6.640;2023-04-12T13:03:28;0.22;;;0.22;;
40588;SDS011;26297;49.450;6.640;2023-04-12T13:06:34;0.10;;;0.10;;
40588;SDS011;26297;49.450;6.640;2023-04-12T13:10:18;1.15;;;0.15;;
40588;SDS011;26297;49.450;6.640;2023-04-12T13:13:28;1.25;;;0.20;;
40588;SDS011;26297;49.450;6.640;2023-04-12T13:16:39;0.15;;;0.15;;
40588;SDS011;26297;49.450;6.640;2023-04-12T13:20:03;0.25;;;0.20;;
40588;SDS011;26297;49.450;6.640;2023-04-12T13:23:12;0.20;;;0.20;;
40588;SDS011;26297;49.450;6.640;2023-04-12T13:26:28;2.47;;;0.30;;
40588;SDS011;26297;49.450;6.640;2023-04-12T13:29:37;0.50;;;0.10;;
40588;SDS011;26297;49.450;6.640;2023-04-12T13:32:40;0.10;;;0.10;;
40588;SDS011;26297;49.450;6.640;2023-04-12T13:35:46;0.17;;;0.13;;
40588;SDS011;26297;49.450;6.640;2023-04-12T13:38:56;0.28;;;0.13;;
40588;SDS011;26297;49.450;6.640;2023-04-12T13:42:05;0.25;;;0.10;;
40588;SDS011;26297;49.450;6.640;2023-04-12T13:45:12;0.35;;;0.13;;
40588;SDS011;26297;49.450;6.640;2023-04-12T13:48:22;0.10;;;0.10;;
40588;SDS011;26297;49.450;6.640;2023-04-12T13:54:39;0.73;;;0.13;;
40588;SDS011;26297;49.450;6.640;2023-04-12T13:57:53;0.20;;;0.05;;
40588;SDS011;26297;49.450;6.640;2023-04-12T14:01:02;0.20;;;0.10;;
40588;SDS011;26297;49.450;6.640;2023-04-12T14:04:10;0.10;;;0.10;;
40588;SDS011;26297;49.450;6.640;2023-04-12T14:07:18;0.17;;;0.10;;
40588;SDS011;26297;49.450;6.640;2023-04-12T14:10:27;0.40;;;0.15;;
40588;SDS011;26297;49.450;6.640;2023-04-12T14:13:44;0.10;;;0.10;;
40588;SDS011;26297;49.450;6.640;2023-04-12T14:16:59;0.35;;;0.20;;
40588;SDS011;26297;49.450;6.640;2023-04-12T14:20:07;0.35;;;0.35;;
40588;SDS011;26297;49.450;6.640;2023-04-12T14:23:24;0.65;;;0.20;;
40588;SDS011;26297;49.450;6.640;2023-04-12T14:26:29;0.32;;;0.17;;
40588;SDS011;26297;49.450;6.640;2023-04-12T14:29:35;0.47;;;0.10;;
40588;SDS011;26297;49.450;6.640;2023-04-12T14:32:39;0.10;;;0.10;;
40588;SDS011;26297;49.450;6.640;2023-04-12T14:35:45;2.05;;;0.32;;
40588;SDS011;26297;49.450;6.640;2023-04-12T14:38:52;0.00;;;0.00;;
40588;SDS011;26297;49.450;6.640;2023-04-12T14:42:01;0.50;;;0.10;;
40588;SDS011;26297;49.450;6.640;2023-04-12T14:48:21;0.68;;;0.30;;
40588;SDS011;26297;49.450;6.640;2023-04-12T14:51:28;2.92;;;0.28;;
40588;SDS011;26297;49.450;6.640;2023-04-12T14:54:36;0.65;;;0.20;;
40588;SDS011;26297;49.450;6.640;2023-04-12T14:57:45;0.57;;;0.10;;
40588;SDS011;26297;49.450;6.640;2023-04-12T15:00:50;0.15;;;0.10;;
40588;SDS011;26297;49.450;6.640;2023-04-12T15:03:59;1.45;;;0.30;;
40588;SDS011;26297;49.450;6.640;2023-04-12T15:07:08;0.75;;;0.13;;
40588;SDS011;26297;49.450;6.640;2023-04-12T15:10:33;0.30;;;0.10;;
40588;SDS011;26297;49.450;6.640;2023-04-12T15:13:39;1.55;;;0.17;;
40588;SDS011;26297;49.450;6.640;2023-04-12T15:16:48;0.10;;;0.10;;
40588;SDS011;26297;49.450;6.640;2023-04-12T15:19:59;0.20;;;0.10;;
40588;SDS011;26297;49.450;6.640;2023-04-12T15:23:14;1.77;;;0.13;;
40588;SDS011;26297;49.450;6.640;2023-04-12T15:26:25;0.32;;;0.20;;
40588;SDS011;26297;49.450;6.640;2023-04-12T15:32:43;0.63;;;0.20;;
40588;SDS011;26297;49.450;6.640;2023-04-12T15:36:00;0.10;;;0.10;;
40588;SDS011;26297;49.450;6.640;2023-04-12T15:39:12;0.60;;;0.15;;
40588;SDS011;26297;49.450;6.640;2023-04-12T15:42:19;1.83;;;0.20;;
40588;SDS011;26297;49.450;6.640;2023-04-12T15:45:23;0.38;;;0.08;;
40588;SDS011;26297;49.450;6.640;2023-04-12T15:48:29;0.08;;;0.00;;
40588;SDS011;26297;49.450;6.640;2023-04-12T15:51:37;0.20;;;0.20;;
40588;SDS011;26297;49.450;6.640;2023-04-12T15:54:52;0.32;;;0.30;;
40588;SDS011;26297;49.450;6.640;2023-04-12T15:57:59;0.90;;;0.20;;
40588;SDS011;26297;49.450;6.640;2023-04-12T16:01:11;0.52;;;0.30;;
40588;SDS011;26297;49.450;6.640;2023-04-12T16:04:18;0.73;;;0.28;;
40588;SDS011;26297;49.450;6.640;2023-04-12T16:10:33;1.02;;;0.40;;
40588;SDS011;26297;49.450;6.640;2023-04-12T16:13:49;0.50;;;0.20;;
40588;SDS011;26297;49.450;6.640;2023-04-12T16:29:29;0.68;;;0.60;;
40588;SDS011;26297;49.450;6.640;2023-04-12T16:33:27;1.23;;;0.75;;
40588;SDS011;26297;49.450;6.640;2023-04-12T16:40:58;1.98;;;1.25;;
40588;SDS011;26297;49.450;6.640;2023-04-12T16:44:06;3.20;;;0.80;;
40588;SDS011;26297;49.450;6.640;2023-04-12T16:47:17;1.50;;;0.55;;
40588;SDS011;26297;49.450;6.640;2023-04-12T16:50:23;0.73;;;0.30;;
40588;SDS011;26297;49.450;6.640;2023-04-12T16:53:41;0.60;;;0.30;;
40588;SDS011;26297;49.450;6.640;2023-04-12T16:57:03;2.15;;;0.73;;
40588;SDS011;26297;49.450;6.640;2023-04-12T17:00:10;3.30;;;1.02;;
40588;SDS011;26297;49.450;6.640;2023-04-12T17:03:26;1.92;;;0.68;;
40588;SDS011;26297;49.450;6.640;2023-04-12T17:09:40;3.15;;;0.77;;
40588;SDS011;26297;49.450;6.640;2023-04-12T17:12:51;1.65;;;0.50;;
40588;SDS011;26297;49.450;6.640;2023-04-12T17:16:20;1.65;;;0.40;;
40588;SDS011;26297;49.450;6.640;2023-04-12T17:19:28;0.88;;;0.40;;
40588;SDS011;26297;49.450;6.640;2023-04-12T17:22:34;1.55;;;0.30;;
40588;SDS011;26297;49.450;6.640;2023-04-12T17:25:44;1.80;;;0.68;;
40588;SDS011;26297;49.450;6.640;2023-04-12T17:29:01;0.57;;;0.20;;
40588;SDS011;26297;49.450;6.640;2023-04-12T17:35:22;3.10;;;1.30;;
40588;SDS011;26297;49.450;6.640;2023-04-12T17:38:57;1.50;;;0.30;;
40588;SDS011;26297;49.450;6.640;2023-04-12T17:42:08;0.15;;;0.15;;
40588;SDS011;26297;49.450;6.640;2023-04-12T17:45:29;1.83;;;0.40;;
40588;SDS011;26297;49.450;6.640;2023-04-12T18:00:36;1.08;;;0.20;;
40588;SDS011;26297;49.450;6.640;2023-04-12T18:04:20;1.02;;;0.25;;
40588;SDS011;26297;49.450;6.640;2023-04-12T18:12:07;0.35;;;0.35;;
40588;SDS011;26297;49.450;6.640;2023-04-12T18:16:04;0.55;;;0.45;;
40588;SDS011;26297;49.450;6.640;2023-04-12T18:19:44;0.45;;;0.30;;
40588;SDS011;26297;49.450;6.640;2023-04-12T18:26:46;0.98;;;0.50;;
40588;SDS011;26297;49.450;6.640;2023-04-12T18:33:36;1.55;;;0.55;;
40588;SDS011;26297;49.450;6.640;2023-04-12T18:36:51;2.00;;;0.75;;
40588;SDS011;26297;49.450;6.640;2023-04-12T18:40:00;0.63;;;0.32;;
40588;SDS011;26297;49.450;6.640;2023-04-12T18:46:46;0.50;;;0.50;;
40588;SDS011;26297;49.450;6.640;2023-04-12T18:50:00;0.52;;;0.35;;
40588;SDS011;26297;49.450;6.640;2023-04-12T18:53:17;1.58;;;0.40;;
40588;SDS011;26297;49.450;6.640;2023-04-12T18:56:44;3.13;;;0.30;;
40588;SDS011;26297;49.450;6.640;2023-04-12T18:59:55;0.85;;;0.30;;
40588;SDS011;26297;49.450;6.640;2023-04-12T19:03:04;1.15;;;0.35;;
40588;SDS011;26297;49.450;6.640;2023-04-12T19:06:22;0.82;;;0.38;;
40588;SDS011;26297;49.450;6.640;2023-04-12T19:09:39;0.77;;;0.20;;
40588;SDS011;26297;49.450;6.640;2023-04-12T19:13:07;0.38;;;0.30;;
40588;SDS011;26297;49.450;6.640;2023-04-12T19:16:26;1.67;;;0.50;;
40588;SDS011;26297;49.450;6.640;2023-04-12T19:19:42;0.85;;;0.40;;
40588;SDS011;26297;49.450;6.640;2023-04-12T19:22:54;0.57;;;0.50;;
40588;SDS011;26297;49.450;6.640;2023-04-12T19:26:38;1.15;;;0.60;;
40588;SDS011;26297;49.450;6.640;2023-04-12T19:29:53;1.67;;;0.50;;
40588;SDS011;26297;49.450;6.640;2023-04-12T19:33:03;1.38;;;0.50;;
40588;SDS011;26297;49.450;6.640;2023-04-12T19:36:31;0.47;;;0.40;;
40588;SDS011;26297;49.450;6.640;2023-04-12T19:39:39;0.60;;;0.50;;
40588;SDS011;26297;49.450;6.640;2023-04-12T20:14:06;0.40;;;0.22;;
40588;SDS011;26297;49.450;6.640;2023-04-12T20:20:00;0.30;;;0.30;;
40588;SDS011;26297;49.450;6.640;2023-04-12T20:23:18;0.32;;;0.30;;
40588;SDS011;26297;49.450;6.640;2023-04-12T20:26:25;1.55;;;0.20;;
40588;SDS011;26297;49.450;6.640;2023-04-12T20:29:32;0.68;;;0.35;;
40588;SDS011;26297;49.450;6.640;2023-04-12T20:32:42;0.52;;;0.30;;
40588;SDS011;26297;49.450;6.640;2023-04-12T20:38:46;0.40;;;0.30;;
40588;SDS011;26297;49.450;6.640;2023-04-12T20:42:01;0.45;;;0.40;;
40588;SDS011;26297;49.450;6.640;2023-04-12T20:45:09;0.28;;;0.20;;
40588;SDS011;26297;49.450;6.640;2023-04-12T20:48:22;0.20;;;0.20;;
40588;SDS011;26297;49.450;6.640;2023-04-12T20:51:47;0.20;;;0.20;;
40588;SDS011;26297;49.450;6.640;2023-04-12T20:54:51;0.52;;;0.20;;
40588;SDS011;26297;49.450;6.640;2023-04-12T20:58:16;0.63;;;0.20;;
40588;SDS011;26297;49.450;6.640;2023-04-12T21:01:26;0.28;;;0.20;;
40588;SDS011;26297;49.450;6.640;2023-04-12T21:04:36;0.20;;;0.20;;
40588;SDS011;26297;49.450;6.640;2023-04-12T21:07:41;0.38;;;0.20;;
40588;SDS011;26297;49.450;6.640;2023-04-12T21:10:51;0.50;;;0.10;;
40588;SDS011;26297;49.450;6.640;2023-04-12T21:13:55;0.75;;;0.20;;
40588;SDS011;26297;49.450;6.640;2023-04-12T21:17:01;0.60;;;0.22;;
40588;SDS011;26297;49.450;6.640;2023-04-12T21:20:09;0.15;;;0.15;;
40588;SDS011;26297;49.450;6.640;2023-04-12T21:23:16;0.70;;;0.20;;
40588;SDS011;26297;49.450;6.640;2023-04-12T21:26:21;0.22;;;0.20;;
40588;SDS011;26297;49.450;6.640;2023-04-12T21:29:25;0.40;;;0.20;;
40588;SDS011;26297;49.450;6.640;2023-04-12T22:03:35;1.87;;;0.20;;
40588;SDS011;26297;49.450;6.640;2023-04-12T22:06:44;0.10;;;0.10;;
40588;SDS011;26297;49.450;6.640;2023-04-12T22:09:54;0.40;;;0.20;;
40588;SDS011;26297;49.450;6.640;2023-04-12T22:13:14;0.50;;;0.20;;
40588;SDS011;26297;49.450;6.640;2023-04-12T22:16:32;0.50;;;0.17;;
40588;SDS011;26297;49.450;6.640;2023-04-12T22:20:00;0.55;;;0.17;;
40588;SDS011;26297;49.450;6.640;2023-04-12T22:23:21;0.10;;;0.10;;
40588;SDS011;26297;49.450;6.640;2023-04-12T22:26:48;0.52;;;0.30;;
40588;SDS011;26297;49.450;6.640;2023-04-12T22:30:14;0.55;;;0.50;;
40588;SDS011;26297;49.450;6.640;2023-04-12T22:33:57;1.08;;;0.30;;
40588;SDS011;26297;49.450;6.640;2023-04-12T22:37:15;0.43;;;0.30;;
40588;SDS011;26297;49.450;6.640;2023-04-12T22:40:29;1.45;;;0.20;;
40588;SDS011;26297;49.450;6.640;2023-04-12T22:43:56;1.40;;;0.22;;
40588;SDS011;26297;49.450;6.640;2023-04-12T22:47:16;0.35;;;0.20;;
40588;SDS011;26297;49.450;6.640;2023-04-12T22:50:36;1.15;;;0.30;;
40588;SDS011;26297;49.450;6.640;2023-04-12T22:54:01;0.95;;;0.30;;
40588;SDS011;26297;49.450;6.640;2023-04-12T22:57:08;1.20;;;0.20;;
40588;SDS011;26297;49.450;6.640;2023-04-12T23:00:12;0.20;;;0.20;;
40588;SDS011;26297;49.450;6.640;2023-04-12T23:03:25;0.30;;;0.22;;
40588;SDS011;26297;49.450;6.640;2023-04-12T23:06:36;0.73;;;0.30;;
40588;SDS011;26297;49.450;6.640;2023-04-12T23:09:42;0.75;;;0.30;;
40588;SDS011;26297;49.450;6.640;2023-04-12T23:12:47;1.75;;;0.30;;
40588;SDS011;26297;49.450;6.640;2023-04-12T23:15:55;0.80;;;0.40;;
40588;SDS011;26297;49.450;6.640;2023-04-12T23:19:04;0.40;;;0.40;;